Time;durP1;ratioP1;P1;durP2;ratioP2;P2;SDS_P1;SDS_P2;PMS_P1;PMS_P2;Temp;Humidity;BMP_temperature;BMP_pressure;BME280_temperature;BME280_humidity;BME280_pressure;Samples;Min_cycle;Max_cycle;Signal;HPM_P1;HPM_P2
2022/07/02 00:01:09;;;;;;;6.03;3.97;;;15.50;99.90;;;;;;5055768;28;20201;-84
2022/07/02 00:03:37;;;;;;;6.60;4.57;;;15.50;99.90;;;;;;5048658;28;20208;-85
2022/07/02 00:06:06;;;;;;;4.60;3.87;;;15.50;99.90;;;;;;5041978;28;20264;-84
2022/07/02 00:08:33;;;;;;;9.03;3.80;;;15.40;99.90;;;;;;5048439;28;20780;-86
2022/07/02 00:11:03;;;;;;;5.70;3.83;;;15.40;99.90;;;;;;5042389;28;20241;-85
2022/07/02 00:13:30;;;;;;;5.93;4.20;;;15.40;99.90;;;;;;5049569;28;20662;-84
2022/07/02 00:15:57;;;;;;;7.87;4.83;;;15.40;99.90;;;;;;5051670;28;20224;-83
2022/07/02 00:18:24;;;;;;;7.07;4.07;;;15.30;99.90;;;;;;5053125;28;20219;-84
2022/07/02 00:20:52;;;;;;;8.80;4.23;;;15.30;99.90;;;;;;5063076;28;20211;-85
2022/07/02 00:23:19;;;;;;;6.93;4.40;;;15.20;99.90;;;;;;5060983;28;20217;-85
2022/07/02 00:25:56;;;;;;;6.50;3.97;;;15.20;99.90;;;;;;5047171;28;20208;-86
2022/07/02 00:28:27;;;;;;;7.80;4.43;;;15.20;99.90;;;;;;5048184;28;20237;-84
2022/07/02 00:30:54;;;;;;;6.30;4.23;;;15.10;99.90;;;;;;5046540;28;20202;-83
2022/07/02 00:33:24;;;;;;;5.80;4.13;;;15.10;99.90;;;;;;5045971;28;20201;-83
2022/07/02 00:35:51;;;;;;;7.87;4.60;;;15.00;99.90;;;;;;5057511;28;20212;-83
2022/07/02 00:38:18;;;;;;;5.77;4.57;;;15.00;99.90;;;;;;5050381;28;20675;-84
2022/07/02 00:40:46;;;;;;;7.10;4.77;;;15.00;99.90;;;;;;5052556;28;20227;-84
2022/07/02 00:43:13;;;;;;;7.13;4.67;;;14.90;99.90;;;;;;5047875;28;20205;-84
2022/07/02 00:45:41;;;;;;;8.43;4.67;;;14.90;99.90;;;;;;5051827;28;20205;-84
2022/07/02 00:48:08;;;;;;;7.37;4.97;;;14.80;99.90;;;;;;5079535;28;20662;-85
2022/07/02 00:50:35;;;;;;;5.93;4.50;;;14.80;99.90;;;;;;5074650;28;20230;-84
2022/07/02 00:53:02;;;;;;;7.07;5.30;;;14.80;99.90;;;;;;5075620;28;20197;-84
2022/07/02 00:55:29;;;;;;;7.00;4.67;;;14.80;99.90;;;;;;5064827;28;20192;-85
2022/07/02 00:57:56;;;;;;;6.20;4.73;;;14.70;99.90;;;;;;5063022;28;20249;-85
2022/07/02 01:00:23;;;;;;;6.47;4.93;;;14.70;99.90;;;;;;5070120;28;20205;-84
2022/07/02 01:02:52;;;;;;;6.13;5.10;;;14.70;99.90;;;;;;5048716;28;20210;-85
2022/07/02 01:05:20;;;;;;;7.67;4.93;;;14.70;99.90;;;;;;5053345;28;20554;-85
2022/07/02 01:10:44;;;;;;;7.10;4.87;;;14.70;99.90;;;;;;5048773;28;20208;-85
2022/07/02 01:13:12;;;;;;;8.63;5.20;;;14.60;99.90;;;;;;5048922;28;20201;-87
2022/07/02 01:15:39;;;;;;;7.00;5.23;;;14.60;99.90;;;;;;5068352;28;20192;-86
2022/07/02 01:18:07;;;;;;;8.10;5.57;;;14.60;99.90;;;;;;5064354;28;20267;-82
2022/07/02 01:20:34;;;;;;;9.53;5.93;;;14.60;99.90;;;;;;5067913;28;20226;-85
2022/07/02 01:23:01;;;;;;;7.70;5.17;;;14.50;99.90;;;;;;5063254;28;20201;-86
2022/07/02 01:25:28;;;;;;;7.97;5.43;;;14.50;99.90;;;;;;5067533;28;20253;-85
2022/07/02 01:27:55;;;;;;;8.33;6.10;;;14.50;99.90;;;;;;5060796;28;20223;-84
2022/07/02 01:30:22;;;;;;;7.50;5.47;;;14.40;99.90;;;;;;5060369;28;20277;-83
2022/07/02 01:32:49;;;;;;;7.73;5.90;;;14.40;99.90;;;;;;5045067;28;20521;-84
2022/07/02 01:35:15;;;;;;;9.43;6.83;;;14.40;99.90;;;;;;5057227;28;20231;-82
2022/07/02 01:37:42;;;;;;;11.73;6.60;;;14.30;99.90;;;;;;5058985;28;20205;-83
2022/07/02 01:40:10;;;;;;;10.27;7.17;;;14.30;99.90;;;;;;5055006;28;20352;-85
2022/07/02 01:42:37;;;;;;;10.97;6.10;;;14.30;99.90;;;;;;5050517;28;20306;-84
2022/07/02 01:45:04;;;;;;;9.13;6.73;;;14.30;99.90;;;;;;5044776;28;20283;-84
2022/07/02 01:47:31;;;;;;;7.70;6.70;;;14.30;99.90;;;;;;5047731;28;20263;-84
2022/07/02 01:49:58;;;;;;;8.73;6.33;;;14.30;99.90;;;;;;5054470;28;20229;-86
2022/07/02 01:52:26;;;;;;;9.13;7.20;;;14.30;99.90;;;;;;5047123;28;20254;-85
2022/07/02 01:54:53;;;;;;;9.93;7.67;;;14.20;99.90;;;;;;5046526;28;20662;-85
2022/07/02 01:57:23;;;;;;;12.73;7.57;;;14.20;99.90;;;;;;5056977;28;20265;-85
2022/07/02 01:59:50;;;;;;;9.23;6.67;;;14.10;99.90;;;;;;5052534;28;20213;-83
2022/07/02 02:02:16;;;;;;;9.73;7.57;;;14.10;99.90;;;;;;5057126;28;20591;-86
2022/07/02 02:04:45;;;;;;;10.37;7.20;;;14.10;99.90;;;;;;5058039;28;20591;-85
2022/07/02 02:07:12;;;;;;;10.53;7.70;;;14.10;99.90;;;;;;5052388;28;20213;-87
2022/07/02 02:09:39;;;;;;;8.63;7.17;;;14.10;99.90;;;;;;5052791;28;20229;-87
2022/07/02 02:12:06;;;;;;;8.97;7.63;;;14.10;99.90;;;;;;5061486;28;20197;-86
2022/07/02 02:14:33;;;;;;;11.50;7.73;;;14.00;99.90;;;;;;5055553;28;20739;-85
2022/07/02 02:17:00;;;;;;;8.67;7.50;;;14.00;99.90;;;;;;5051104;28;20382;-86
2022/07/02 02:19:27;;;;;;;10.33;7.73;;;14.00;99.90;;;;;;5074764;28;20713;-85
2022/07/02 02:21:55;;;;;;;9.87;7.60;;;14.00;99.90;;;;;;5041918;28;20263;-84
2022/07/02 02:24:23;;;;;;;9.10;7.57;;;13.90;99.90;;;;;;5055127;28;20692;-87
2022/07/02 02:26:49;;;;;;;8.70;7.03;;;13.90;99.90;;;;;;5040812;28;20338;-85
2022/07/02 02:29:16;;;;;;;11.57;7.53;;;13.90;99.90;;;;;;5046070;28;20289;-85
2022/07/02 02:31:43;;;;;;;8.63;7.73;;;13.90;99.90;;;;;;5048410;28;20274;-85
2022/07/02 02:34:10;;;;;;;11.30;8.37;;;13.90;99.90;;;;;;5050980;28;20223;-85
2022/07/02 02:36:37;;;;;;;9.33;7.70;;;13.90;99.90;;;;;;5055735;28;20263;-87
2022/07/02 02:39:04;;;;;;;10.53;8.30;;;13.80;99.90;;;;;;5059280;28;20223;-85
2022/07/02 02:41:30;;;;;;;13.43;8.87;;;13.80;99.90;;;;;;5057432;28;20266;-86
2022/07/02 02:43:57;;;;;;;12.20;8.93;;;13.80;99.90;;;;;;5039870;28;20221;-83
2022/07/02 02:46:24;;;;;;;11.27;8.60;;;13.80;99.90;;;;;;5054506;28;20580;-84
2022/07/02 02:48:51;;;;;;;13.23;8.97;;;13.80;99.90;;;;;;5051407;28;20591;-85
2022/07/02 02:51:18;;;;;;;11.20;9.07;;;13.80;99.90;;;;;;5058822;28;20680;-80
2022/07/02 02:53:45;;;;;;;11.93;9.13;;;13.80;99.90;;;;;;5045986;28;20251;-86
2022/07/02 02:56:12;;;;;;;13.63;9.53;;;13.70;99.90;;;;;;5050850;28;20283;-85
2022/07/02 02:58:38;;;;;;;9.50;8.50;;;13.70;99.90;;;;;;5058311;28;20230;-83
2022/07/02 03:01:05;;;;;;;12.27;9.20;;;13.70;99.90;;;;;;5078904;28;20535;-86
2022/07/02 03:03:32;;;;;;;14.30;9.83;;;13.60;99.90;;;;;;5055322;28;20565;-85
2022/07/02 03:06:00;;;;;;;14.20;9.77;;;13.60;99.90;;;;;;5054305;28;20233;-86
2022/07/02 03:08:27;;;;;;;15.27;9.23;;;13.60;99.90;;;;;;5070707;28;20225;-85
2022/07/02 03:10:53;;;;;;;14.10;9.33;;;13.60;99.90;;;;;;5065083;28;20232;-86
2022/07/02 03:13:20;;;;;;;11.30;9.07;;;13.60;99.90;;;;;;5053820;28;20691;-85
2022/07/02 03:15:47;;;;;;;12.97;8.90;;;13.50;99.90;;;;;;5053074;28;20212;-85
2022/07/02 03:18:17;;;;;;;11.40;8.93;;;13.50;99.90;;;;;;5058582;28;20200;-85
2022/07/02 03:20:51;;;;;;;14.43;9.73;;;13.50;99.90;;;;;;5050150;28;20209;-86
2022/07/02 03:23:18;;;;;;;10.47;8.27;;;13.50;99.90;;;;;;5063835;28;20247;-85
2022/07/02 03:25:45;;;;;;;13.07;9.30;;;13.50;99.90;;;;;;5053976;28;20210;-86
2022/07/02 03:28:12;;;;;;;10.80;9.60;;;13.50;99.90;;;;;;5047026;28;20200;-87
2022/07/02 03:30:38;;;;;;;13.63;10.50;;;13.50;99.90;;;;;;5050855;28;20228;-86
2022/07/02 03:33:06;;;;;;;13.40;10.10;;;13.50;99.90;;;;;;5061068;28;20239;-85
2022/07/02 03:35:33;;;;;;;16.27;10.20;;;13.50;99.90;;;;;;5062685;28;20204;-84
2022/07/02 03:38:01;;;;;;;12.93;9.30;;;13.40;99.90;;;;;;5061578;28;20209;-85
2022/07/02 03:40:28;;;;;;;12.93;10.73;;;13.40;99.90;;;;;;5053967;28;20611;-87
2022/07/02 03:42:55;;;;;;;13.43;8.87;;;13.50;99.90;;;;;;5060655;28;20263;-87
2022/07/02 03:45:22;;;;;;;13.57;8.57;;;13.40;99.90;;;;;;5057152;28;20338;-86
2022/07/02 03:47:49;;;;;;;12.90;9.33;;;13.50;99.90;;;;;;5055228;28;20281;-86
2022/07/02 03:50:16;;;;;;;13.27;9.13;;;13.50;99.90;;;;;;5066044;28;20274;-85
2022/07/02 03:52:42;;;;;;;13.77;8.87;;;13.50;99.90;;;;;;5058285;28;20208;-84
2022/07/02 03:55:09;;;;;;;12.37;9.70;;;13.50;99.90;;;;;;5064764;28;20228;-84
2022/07/02 03:57:36;;;;;;;11.10;8.90;;;13.50;99.90;;;;;;5062762;28;20234;-85
2022/07/02 04:00:05;;;;;;;12.07;8.57;;;13.50;99.90;;;;;;5067203;28;20295;-86
2022/07/02 04:02:32;;;;;;;15.67;9.87;;;13.60;99.90;;;;;;5067977;28;20228;-86
2022/07/02 04:04:58;;;;;;;13.37;9.20;;;13.50;99.90;;;;;;5054603;28;20261;-85
2022/07/02 04:07:25;;;;;;;13.60;9.17;;;13.50;99.90;;;;;;5062540;28;20706;-86
2022/07/02 04:09:52;;;;;;;9.80;8.70;;;13.50;99.90;;;;;;5057702;28;20234;-87
2022/07/02 04:12:19;;;;;;;10.67;8.80;;;13.50;99.90;;;;;;5055359;28;20201;-86
2022/07/02 04:14:45;;;;;;;14.60;9.30;;;13.60;99.90;;;;;;5044959;28;20279;-85
2022/07/02 04:17:12;;;;;;;13.27;8.63;;;13.50;99.90;;;;;;5054691;28;20229;-84
2022/07/02 04:19:40;;;;;;;10.30;8.23;;;13.60;99.90;;;;;;5064282;28;20578;-85
2022/07/02 04:22:07;;;;;;;15.27;9.23;;;13.70;99.90;;;;;;5056768;28;20201;-87
2022/07/02 04:24:33;;;;;;;11.20;8.43;;;13.70;99.90;;;;;;5056469;28;20280;-87
2022/07/02 04:27:00;;;;;;;12.03;8.50;;;13.70;99.90;;;;;;5051711;28;20242;-85
2022/07/02 04:29:27;;;;;;;12.17;8.00;;;13.70;99.90;;;;;;5064315;28;20231;-86
2022/07/02 04:31:54;;;;;;;12.53;8.53;;;13.80;99.90;;;;;;5048539;28;20213;-85
2022/07/02 04:34:22;;;;;;;11.97;8.43;;;13.80;99.90;;;;;;5071530;28;20718;-87
2022/07/02 04:36:49;;;;;;;10.73;8.93;;;13.90;99.90;;;;;;5060531;28;20653;-86
2022/07/02 04:39:23;;;;;;;11.57;7.67;;;13.90;99.90;;;;;;5051707;28;20221;-87
2022/07/02 04:41:50;;;;;;;11.17;8.43;;;14.00;99.90;;;;;;5050098;28;20251;-87
2022/07/02 04:44:17;;;;;;;14.40;8.43;;;14.00;99.90;;;;;;5044462;28;20313;-83
2022/07/02 04:46:44;;;;;;;14.07;8.03;;;14.10;99.90;;;;;;5055352;28;20287;-86
2022/07/02 04:49:11;;;;;;;10.43;7.87;;;14.20;99.90;;;;;;5054561;28;20297;-87
2022/07/02 04:51:38;;;;;;;9.30;7.63;;;14.20;99.90;;;;;;5055212;28;20213;-86
2022/07/02 04:54:04;;;;;;;11.07;7.77;;;14.30;99.90;;;;;;5062291;28;20228;-85
2022/07/02 04:56:31;;;;;;;12.33;8.23;;;14.30;99.90;;;;;;5061351;28;20337;-86
2022/07/02 04:59:00;;;;;;;12.00;7.80;;;14.50;99.90;;;;;;5058856;28;20224;-85
2022/07/02 05:01:28;;;;;;;8.27;6.53;;;14.60;99.90;;;;;;5061121;28;20310;-85
2022/07/02 05:03:55;;;;;;;10.27;7.33;;;14.70;99.90;;;;;;5058117;28;20263;-86
2022/07/02 05:06:22;;;;;;;9.03;6.50;;;14.90;99.90;;;;;;5061276;28;20288;-85
2022/07/02 05:08:51;;;;;;;8.10;6.27;;;15.00;99.90;;;;;;5049076;28;20220;-87
2022/07/02 05:11:19;;;;;;;8.23;5.80;;;15.20;99.90;;;;;;5047760;28;20259;-85
2022/07/02 05:13:49;;;;;;;9.47;6.53;;;15.20;99.90;;;;;;5043046;28;20210;-85
2022/07/02 05:16:17;;;;;;;8.23;5.97;;;15.30;99.90;;;;;;5043597;28;20259;-87
2022/07/02 05:18:44;;;;;;;10.87;7.53;;;15.40;99.90;;;;;;5050304;28;20209;-86
2022/07/02 05:21:11;;;;;;;11.70;9.67;;;15.50;99.90;;;;;;5054440;28;20212;-84
2022/07/02 05:23:41;;;;;;;11.90;6.10;;;15.50;99.90;;;;;;5050241;28;20579;-86
2022/07/02 05:26:08;;;;;;;10.80;5.60;;;15.60;99.90;;;;;;5089499;28;20228;-84
2022/07/02 05:28:35;;;;;;;5.33;4.60;;;15.60;99.90;;;;;;5046038;28;20217;-85
2022/07/02 05:31:02;;;;;;;7.83;5.10;;;15.70;99.90;;;;;;5061248;28;20225;-85
2022/07/02 05:33:29;;;;;;;9.47;5.13;;;15.90;99.90;;;;;;5053352;28;20205;-86
2022/07/02 05:35:55;;;;;;;8.67;4.63;;;16.30;99.90;;;;;;5057683;28;20200;-86
2022/07/02 05:38:22;;;;;;;8.63;4.97;;;16.60;99.90;;;;;;5079534;28;20226;-81
2022/07/02 05:40:49;;;;;;;8.60;5.10;;;16.80;99.90;;;;;;5051658;28;21003;-86
2022/07/02 05:43:16;;;;;;;5.63;4.23;;;16.90;99.90;;;;;;5046505;28;20565;-85
2022/07/02 05:45:43;;;;;;;7.53;3.92;;;17.00;99.90;;;;;;5048014;28;20200;-86
2022/07/02 05:48:16;;;;;;;10.90;4.72;;;17.40;99.90;;;;;;5054193;28;20231;-87
2022/07/02 05:50:43;;;;;;;9.05;5.35;;;17.60;99.90;;;;;;5055742;28;20722;-85
2022/07/02 05:53:10;;;;;;;6.65;4.13;;;17.60;99.90;;;;;;5058799;28;20217;-82
2022/07/02 05:55:37;;;;;;;5.10;3.85;;;17.70;99.90;;;;;;5048760;28;20657;-87
2022/07/02 05:58:03;;;;;;;4.70;3.60;;;17.70;99.90;;;;;;5050997;28;20201;-88
2022/07/02 06:00:30;;;;;;;7.13;3.70;;;17.70;99.90;;;;;;5053950;28;20213;-85
2022/07/02 06:02:57;;;;;;;4.80;3.25;;;17.70;99.90;;;;;;5058183;28;20201;-86
2022/07/02 06:08:09;;;;;;;5.38;2.70;;;17.80;99.90;;;;;;5045520;28;20220;-86
2022/07/02 06:10:36;;;;;;;3.15;2.45;;;17.70;99.90;;;;;;5053055;28;20244;-87
2022/07/02 06:13:03;;;;;;;5.78;3.00;;;17.80;99.90;;;;;;5056650;28;20225;-85
2022/07/02 06:15:30;;;;;;;4.20;2.42;;;17.80;99.90;;;;;;5050045;28;20969;-87
2022/07/02 06:18:00;;;;;;;3.95;2.20;;;17.90;99.90;;;;;;5049183;28;20297;-87
2022/07/02 06:20:27;;;;;;;5.68;2.33;;;18.10;99.90;;;;;;5057828;28;20222;-89
2022/07/02 06:22:54;;;;;;;7.50;2.30;;;18.30;99.90;;;;;;5066651;28;20200;-86
2022/07/02 06:25:21;;;;;;;7.22;2.13;;;18.50;99.90;;;;;;5051226;28;20665;-86
2022/07/02 06:27:48;;;;;;;3.70;1.88;;;18.70;99.90;;;;;;5053807;28;20258;-84
2022/07/02 06:30:16;;;;;;;4.65;2.00;;;18.80;99.90;;;;;;5054628;28;20221;-89
2022/07/02 06:32:45;;;;;;;4.82;1.95;;;19.10;99.90;;;;;;5053427;28;20652;-86
2022/07/02 06:35:12;;;;;;;5.15;1.85;;;19.10;99.90;;;;;;5049767;28;20262;-85
2022/07/02 06:37:38;;;;;;;4.93;2.08;;;19.30;99.90;;;;;;5058441;28;20193;-87
2022/07/02 06:40:07;;;;;;;3.35;1.52;;;19.50;99.90;;;;;;5048705;28;20228;-88
2022/07/02 06:42:34;;;;;;;7.15;2.10;;;19.80;99.90;;;;;;5041878;28;20251;-86
2022/07/02 06:45:02;;;;;;;6.82;1.52;;;20.20;99.90;;;;;;5050283;28;20205;-86
2022/07/02 06:47:30;;;;;;;5.03;1.85;;;21.00;99.90;;;;;;5048639;28;20699;-84
2022/07/02 06:49:58;;;;;;;3.58;1.38;;;21.90;99.90;;;;;;5053297;28;20225;-85
2022/07/02 06:52:26;;;;;;;2.53;1.50;;;22.70;99.90;;;;;;5054840;28;20236;-85
2022/07/02 06:54:53;;;;;;;4.97;1.50;;;23.30;99.90;;;;;;5062606;28;20226;-84
2022/07/02 06:57:19;;;;;;;3.38;1.35;;;23.50;99.90;;;;;;5068963;28;20208;-86
2022/07/02 06:59:52;;;;;;;4.43;1.67;;;23.50;99.90;;;;;;5074664;28;20252;-84
2022/07/02 07:02:19;;;;;;;2.67;1.40;;;23.10;99.90;;;;;;5047282;28;20259;-87
2022/07/02 07:04:47;;;;;;;3.15;1.60;;;23.00;99.90;;;;;;5043935;28;20613;-87
2022/07/02 07:07:14;;;;;;;4.18;1.52;;;23.50;99.90;;;;;;5047213;28;20539;-86
2022/07/02 07:09:41;;;;;;;3.40;1.60;;;24.10;99.90;;;;;;5057824;28;20220;-85
2022/07/02 07:12:08;;;;;;;3.03;1.52;;;24.10;99.90;;;;;;5058307;28;20231;-84
2022/07/02 07:14:35;;;;;;;2.97;1.30;;;24.20;99.90;;;;;;5054475;28;20201;-86
2022/07/02 07:17:03;;;;;;;4.03;1.42;;;24.20;99.90;;;;;;5061020;28;20229;-84
2022/07/02 07:19:30;;;;;;;2.08;1.05;;;24.50;99.90;;;;;;5059964;28;20190;-87
2022/07/02 07:21:57;;;;;;;3.38;1.30;;;24.80;99.90;;;;;;5058427;28;20212;-85
2022/07/02 07:24:24;;;;;;;3.40;1.00;;;25.00;99.20;;;;;;5059518;28;20228;-80
2022/07/02 07:26:51;;;;;;;2.78;1.20;;;25.20;97.80;;;;;;5056971;28;20209;-85
2022/07/02 07:29:19;;;;;;;2.10;1.00;;;25.30;96.90;;;;;;5051144;28;20201;-87
2022/07/02 07:31:46;;;;;;;3.65;0.90;;;25.60;96.20;;;;;;5074170;28;20232;-87
2022/07/02 07:34:13;;;;;;;4.07;0.82;;;26.20;95.60;;;;;;5054475;28;20205;-87
2022/07/02 07:36:40;;;;;;;1.63;1.20;;;26.90;94.60;;;;;;5047748;28;20202;-84
2022/07/02 07:39:07;;;;;;;2.20;0.90;;;27.70;93.20;;;;;;5055658;28;20217;-84
2022/07/02 07:41:34;;;;;;;2.67;1.00;;;27.90;90.50;;;;;;5050481;28;20777;-86
2022/07/02 07:44:02;;;;;;;2.85;0.95;;;28.00;89.40;;;;;;5045123;28;20197;-85
2022/07/02 07:46:29;;;;;;;1.42;0.68;;;28.60;87.60;;;;;;5048502;28;20194;-85
2022/07/02 07:48:58;;;;;;;1.25;0.60;;;28.90;84.50;;;;;;5045508;28;20212;-85
2022/07/02 07:51:25;;;;;;;2.08;0.88;;;28.80;81.20;;;;;;5045347;28;20221;-85
2022/07/02 07:53:52;;;;;;;0.63;0.50;;;28.70;81.50;;;;;;5048667;28;20256;-85
2022/07/02 07:56:19;;;;;;;1.58;0.75;;;28.80;80.10;;;;;;5048042;28;20228;-85
2022/07/02 07:58:47;;;;;;;0.98;0.60;;;29.00;78.80;;;;;;5041272;28;20205;-86
2022/07/02 08:01:14;;;;;;;1.58;0.55;;;29.20;78.40;;;;;;5046186;28;20270;-84
2022/07/02 08:03:41;;;;;;;0.70;0.55;;;29.60;76.40;;;;;;5048996;28;20199;-87
2022/07/02 08:06:07;;;;;;;1.63;0.63;;;29.90;76.00;;;;;;5042862;28;20221;-84
2022/07/02 08:08:34;;;;;;;0.77;0.57;;;30.30;75.20;;;;;;5037520;28;20300;-84
2022/07/02 08:11:01;;;;;;;0.95;0.50;;;30.50;73.40;;;;;;5052052;28;20228;-84
2022/07/02 08:13:28;;;;;;;3.22;0.52;;;30.70;71.30;;;;;;5044853;28;20259;-83
2022/07/02 08:15:55;;;;;;;1.80;0.70;;;30.70;70.30;;;;;;5032645;28;20276;-83
2022/07/02 08:18:22;;;;;;;1.38;0.60;;;30.90;69.70;;;;;;5048970;28;20228;-87
2022/07/02 08:20:49;;;;;;;2.03;0.68;;;30.80;69.10;;;;;;5042609;28;20251;-85
2022/07/02 08:23:16;;;;;;;1.42;0.70;;;31.00;68.00;;;;;;5049134;28;20216;-85
2022/07/02 08:25:43;;;;;;;1.35;0.57;;;30.90;68.30;;;;;;5037082;28;20212;-84
2022/07/02 08:28:09;;;;;;;3.05;0.85;;;30.70;67.30;;;;;;5041893;28;20210;-84
2022/07/02 08:30:37;;;;;;;2.08;0.70;;;30.40;66.60;;;;;;5072697;28;20263;-86
2022/07/02 08:33:03;;;;;;;1.73;0.60;;;30.30;66.00;;;;;;5040643;28;20201;-85
2022/07/02 08:35:32;;;;;;;2.63;0.80;;;29.90;66.30;;;;;;5046742;28;20212;-86
2022/07/02 08:37:59;;;;;;;1.77;0.60;;;29.60;67.50;;;;;;5042722;28;20209;-84
2022/07/02 08:40:28;;;;;;;1.63;0.70;;;29.40;67.70;;;;;;5078831;28;20216;-85
2022/07/02 08:42:59;;;;;;;1.50;0.50;;;29.30;68.90;;;;;;5038336;28;20202;-84
2022/07/02 08:45:31;;;;;;;3.28;0.80;;;29.40;69.30;;;;;;5036218;28;20215;-84
2022/07/02 08:47:59;;;;;;;2.83;0.70;;;29.70;69.50;;;;;;5057154;28;20205;-83
2022/07/02 08:50:26;;;;;;;3.15;0.88;;;29.60;68.80;;;;;;5054992;28;20539;-84
2022/07/02 08:52:54;;;;;;;1.25;0.55;;;29.30;69.00;;;;;;5046540;28;20267;-84
2022/07/02 08:55:22;;;;;;;2.13;1.10;;;29.30;69.10;;;;;;5052206;28;20202;-83
2022/07/02 08:57:51;;;;;;;2.70;0.77;;;29.40;69.30;;;;;;5049867;28;20213;-82
2022/07/02 09:00:22;;;;;;;2.85;0.70;;;29.60;70.40;;;;;;5049175;28;20239;-86
2022/07/02 09:02:58;;;;;;;1.73;0.77;;;29.70;68.40;;;;;;5047521;28;20209;-85
2022/07/02 09:05:27;;;;;;;2.45;0.73;;;29.60;69.20;;;;;;5049222;28;20197;-86
2022/07/02 09:07:55;;;;;;;3.33;0.80;;;29.40;68.70;;;;;;5053003;28;20227;-84
2022/07/02 09:10:24;;;;;;;2.03;0.65;;;29.40;68.30;;;;;;5051299;28;20197;-87
2022/07/02 09:12:53;;;;;;;0.98;0.63;;;29.30;68.90;;;;;;5038022;28;20213;-83
2022/07/02 09:15:21;;;;;;;1.58;0.70;;;29.30;69.80;;;;;;5036436;28;20202;-83
2022/07/02 09:17:49;;;;;;;1.58;0.90;;;29.30;68.90;;;;;;5050774;28;20327;-85
2022/07/02 09:20:16;;;;;;;3.53;1.20;;;29.40;68.70;;;;;;5046689;28;20226;-85
2022/07/02 09:22:46;;;;;;;4.25;0.98;;;29.40;68.30;;;;;;5047302;28;20204;-85
2022/07/02 09:25:21;;;;;;;2.08;0.85;;;29.50;69.00;;;;;;5045931;28;20658;-88
2022/07/02 09:28:01;;;;;;;3.05;0.88;;;29.50;67.10;;;;;;5050684;28;20368;-83
2022/07/02 09:30:30;;;;;;;3.05;0.85;;;29.30;72.20;;;;;;5037358;28;20733;-86
2022/07/02 09:35:42;;;;;;;2.10;0.75;;;29.40;66.90;;;;;;5061559;28;20197;-83
2022/07/02 09:38:10;;;;;;;1.45;0.70;;;;;;;;;;5048564;28;20239;-83
2022/07/02 09:40:54;;;;;;;2.80;0.70;;;28.70;65.90;;;;;;5048332;28;20206;-83
2022/07/02 09:43:29;;;;;;;5.05;0.98;;;28.70;67.20;;;;;;5046168;28;20263;-84
2022/07/02 09:45:57;;;;;;;1.70;0.60;;;28.70;68.60;;;;;;5042792;28;20205;-86
2022/07/02 09:48:24;;;;;;;3.03;0.80;;;28.80;68.30;;;;;;5047529;28;20661;-83
2022/07/02 09:50:52;;;;;;;2.80;0.90;;;28.70;67.20;;;;;;5040136;28;20560;-84
2022/07/02 09:53:19;;;;;;;1.55;0.98;;;28.60;68.70;;;;;;5052567;28;20210;-88
2022/07/02 09:55:48;;;;;;;2.22;0.70;;;28.10;67.70;;;;;;5039987;28;20206;-87
2022/07/02 09:58:24;;;;;;;1.23;0.63;;;27.60;68.40;;;;;;5046093;28;20198;-82
2022/07/02 10:00:51;;;;;;;2.80;0.85;;;27.50;69.10;;;;;;5047168;28;20519;-84
2022/07/02 10:03:18;;;;;;;1.95;0.80;;;27.60;69.90;;;;;;5045020;28;20220;-81
2022/07/02 10:05:49;;;;;;;1.20;0.70;;;27.50;69.40;;;;;;5044286;28;20209;-83
2022/07/02 10:08:17;;;;;;;2.28;0.70;;;27.30;71.00;;;;;;5046994;28;20521;-84
2022/07/02 10:10:45;;;;;;;4.05;1.08;;;27.20;71.10;;;;;;5045777;28;20256;-85
2022/07/02 10:13:14;;;;;;;2.75;0.70;;;27.40;71.40;;;;;;5042369;28;20193;-84
2022/07/02 10:15:47;;;;;;;3.10;0.80;;;27.60;71.80;;;;;;5044762;28;20295;-84
2022/07/02 10:18:14;;;;;;;1.60;0.70;;;28.10;70.40;;;;;;5055027;28;20745;-83
2022/07/02 10:20:42;;;;;;;1.63;0.68;;;28.00;69.00;;;;;;5041897;28;20636;-84
2022/07/02 10:23:09;;;;;;;3.10;0.90;;;27.70;70.40;;;;;;5049173;28;20216;-84
2022/07/02 10:25:36;;;;;;;2.47;0.80;;;27.60;70.40;;;;;;5050231;28;20224;-85
2022/07/02 10:28:03;;;;;;;1.50;0.68;;;27.50;69.90;;;;;;5049585;28;20206;-84
2022/07/02 10:30:31;;;;;;;3.80;0.90;;;27.40;70.90;;;;;;5044517;28;20252;-85
2022/07/02 10:33:07;;;;;;;2.47;1.10;;;27.50;70.90;;;;;;5043945;28;20198;-83
2022/07/02 10:35:35;;;;;;;3.33;1.05;;;27.60;71.10;;;;;;5050619;28;20545;-84
2022/07/02 10:38:02;;;;;;;3.30;1.35;;;27.70;71.70;;;;;;5046697;28;20228;-81
2022/07/02 10:40:29;;;;;;;4.15;0.98;;;27.60;71.50;;;;;;5042644;28;20261;-84
2022/07/02 10:42:59;;;;;;;2.88;0.80;;;27.70;71.40;;;;;;5048329;28;20649;-84
2022/07/02 10:45:27;;;;;;;3.97;1.42;;;27.90;71.00;;;;;;5047952;28;20211;-85
2022/07/02 10:48:05;;;;;;;2.50;0.88;;;28.00;71.60;;;;;;5046466;28;20200;-84
2022/07/02 10:50:39;;;;;;;2.63;1.10;;;28.20;71.00;;;;;;5047036;28;20197;-85
2022/07/02 10:53:20;;;;;;;2.30;1.00;;;28.20;70.90;;;;;;5047837;28;20572;-85
2022/07/02 10:55:53;;;;;;;2.47;1.40;;;28.10;71.40;;;;;;5054570;28;20681;-83
2022/07/02 10:58:23;;;;;;;3.70;1.40;;;28.00;71.40;;;;;;5054433;28;20201;-84
2022/07/02 11:00:51;;;;;;;3.30;1.15;;;27.80;71.20;;;;;;5050666;28;20482;-84
2022/07/02 11:03:26;;;;;;;3.20;0.90;;;27.90;72.30;;;;;;5044579;28;20220;-83
2022/07/02 11:06:01;;;;;;;3.40;1.00;;;28.10;72.20;;;;;;5042558;28;20604;-84
2022/07/02 11:08:36;;;;;;;1.70;1.00;;;28.20;72.70;;;;;;5046887;28;20226;-84
2022/07/02 11:11:03;;;;;;;2.65;1.10;;;28.30;72.50;;;;;;5047366;28;20231;-83
2022/07/02 11:13:50;;;;;;;2.15;1.05;;;28.50;71.80;;;;;;5048447;28;20824;-86
2022/07/02 11:16:38;;;;;;;3.80;0.98;;;28.70;70.40;;;;;;5056494;28;20284;-86
2022/07/02 11:19:24;;;;;;;1.95;0.93;;;28.60;71.00;;;;;;5061340;28;20252;-87
2022/07/02 11:22:05;;;;;;;2.33;0.73;;;28.60;70.50;;;;;;5071616;28;20185;-87
2022/07/02 11:24:32;;;;;;;4.75;0.90;;;28.40;71.20;;;;;;5072684;28;20243;-83
2022/07/02 11:26:59;;;;;;;1.02;0.77;;;28.40;71.20;;;;;;5062310;28;20204;-84
2022/07/02 11:29:27;;;;;;;3.33;1.10;;;28.40;70.80;;;;;;5067515;28;20314;-86
2022/07/02 11:32:01;;;;;;;3.67;1.25;;;28.40;70.80;;;;;;5065457;28;20221;-84
2022/07/02 11:34:32;;;;;;;1.02;0.70;;;28.40;68.40;;;;;;5059924;28;20192;-83
2022/07/02 11:37:05;;;;;;;3.92;2.42;;;28.20;69.10;;;;;;5056750;28;20227;-85
2022/07/02 11:39:32;;;;;;;2.53;0.90;;;28.10;68.90;;;;;;5073574;28;20357;-86
2022/07/02 11:42:01;;;;;;;1.92;0.70;;;28.20;69.50;;;;;;5058994;28;20251;-86
2022/07/02 11:44:29;;;;;;;3.33;0.90;;;28.10;70.20;;;;;;5059260;28;20398;-87
2022/07/02 11:47:00;;;;;;;2.08;1.20;;;28.10;69.70;;;;;;5060441;28;20205;-85
2022/07/02 11:49:44;;;;;;;3.67;0.85;;;28.10;70.00;;;;;;5055542;28;20209;-86
2022/07/02 11:52:12;;;;;;;2.17;0.90;;;27.80;68.60;;;;;;5060112;28;20611;-84
2022/07/02 11:54:42;;;;;;;2.05;1.13;;;27.70;68.00;;;;;;5050120;28;20662;-84
2022/07/02 11:57:10;;;;;;;2.85;0.90;;;27.40;67.60;;;;;;5046907;28;20284;-86
2022/07/02 11:59:36;;;;;;;4.03;1.10;;;27.30;68.30;;;;;;5040518;28;20268;-84
2022/07/02 12:02:03;;;;;;;2.00;1.15;;;27.20;68.90;;;;;;5047459;28;20258;-85
2022/07/02 12:04:31;;;;;;;2.08;0.88;;;27.00;70.70;;;;;;5053584;28;20813;-84
2022/07/02 12:06:59;;;;;;;3.88;0.98;;;26.90;70.70;;;;;;5049099;28;20293;-83
2022/07/02 12:09:27;;;;;;;2.22;0.70;;;27.20;72.00;;;;;;5047827;28;20220;-86
2022/07/02 12:11:58;;;;;;;1.33;0.70;;;27.50;74.60;;;;;;5038815;28;20225;-88
2022/07/02 12:14:26;;;;;;;4.97;1.00;;;27.80;71.30;;;;;;5046911;28;20204;-83
2022/07/02 12:16:57;;;;;;;3.95;1.00;;;28.20;72.80;;;;;;5047832;28;20233;-87
2022/07/02 12:19:30;;;;;;;3.00;0.90;;;28.30;71.50;;;;;;5047772;28;20204;-81
2022/07/02 12:21:57;;;;;;;4.53;0.95;;;28.10;71.00;;;;;;5052077;28;20456;-84
2022/07/02 12:24:35;;;;;;;1.30;0.90;;;28.00;70.10;;;;;;5053103;28;20302;-82
2022/07/02 12:27:03;;;;;;;3.25;0.80;;;28.00;68.80;;;;;;5049780;28;20232;-82
2022/07/02 12:29:56;;;;;;;2.42;1.00;;;27.80;69.00;;;;;;5045851;28;20282;-82
2022/07/02 12:32:32;;;;;;;2.67;0.93;;;27.90;69.20;;;;;;5038125;28;20251;-83
2022/07/02 12:35:02;;;;;;;2.47;1.17;;;28.10;68.40;;;;;;5046742;28;20196;-84
2022/07/02 12:37:29;;;;;;;3.33;1.17;;;28.30;68.10;;;;;;5036843;28;20205;-82
2022/07/02 12:40:17;;;;;;;1.17;0.93;;;28.40;68.40;;;;;;5047683;28;20248;-85
2022/07/02 12:42:56;;;;;;;2.38;0.90;;;28.40;68.40;;;;;;5043815;28;20210;-81
2022/07/02 12:45:25;;;;;;;2.78;1.15;;;28.20;68.10;;;;;;5048918;28;20286;-83
2022/07/02 12:47:58;;;;;;;3.67;1.45;;;28.10;68.70;;;;;;5041997;28;20670;-83
2022/07/02 12:50:28;;;;;;;4.30;1.00;;;28.00;68.40;;;;;;5045362;28;20679;-78
2022/07/02 12:53:00;;;;;;;3.03;1.10;;;28.00;69.60;;;;;;5044636;28;20310;-83
2022/07/02 12:55:32;;;;;;;2.05;1.40;;;28.10;69.80;;;;;;5041660;28;20206;-83
2022/07/02 12:58:11;;;;;;;4.97;1.50;;;28.50;69.80;;;;;;5043069;28;20203;-83
2022/07/02 13:00:46;;;;;;;2.33;1.05;;;28.80;69.30;;;;;;5042452;28;20200;-83